createdAt,value
2019-03-27T00:03:11.749Z,62201.04
2019-03-27T00:05:38.072Z,62207.04
2019-03-27T00:08:04.337Z,62214.97
2019-03-27T00:10:30.580Z,62213.47
2019-03-27T00:12:56.846Z,62211.99
2019-03-27T00:15:23.080Z,62218.00
2019-03-27T00:17:49.334Z,62219.28
2019-03-27T00:20:15.589Z,62214.84
2019-03-27T00:22:41.823Z,62214.50
2019-03-27T00:28:02.424Z,62225.38
2019-03-27T00:30:28.770Z,62224.97
2019-03-27T00:32:55.013Z,62228.82
2019-03-27T00:35:21.371Z,62229.72
2019-03-27T00:37:47.617Z,62229.85
2019-03-27T00:40:13.973Z,62233.84
2019-03-27T00:42:40.215Z,62237.63
2019-03-27T00:45:47.756Z,62243.51
2019-03-27T00:48:13.991Z,62249.13
2019-03-27T00:50:40.241Z,62253.12
2019-03-27T00:53:06.478Z,62259.83
2019-03-27T00:55:32.739Z,62260.70
2019-03-27T00:57:59.210Z,62269.63
2019-03-27T01:01:06.757Z,62272.14
2019-03-27T01:03:32.991Z,62273.16
2019-03-27T01:05:59.241Z,62278.50
2019-03-27T01:08:25.472Z,62273.56
2019-03-27T01:10:51.821Z,62289.14
2019-03-27T01:13:18.080Z,62286.57
2019-03-27T01:15:44.351Z,62286.89
2019-03-27T01:18:10.587Z,62288.86
2019-03-27T01:20:36.927Z,62295.09
2019-03-27T01:23:03.171Z,62298.88
2019-03-27T01:25:29.426Z,62302.68
2019-03-27T01:27:55.679Z,62298.41
2019-03-27T01:30:21.921Z,62306.41
2019-03-27T01:32:48.152Z,62307.34
2019-03-27T01:35:14.417Z,62308.78
2019-03-27T01:37:40.655Z,62310.74
2019-03-27T01:40:28.446Z,62313.93
2019-03-27T01:42:54.694Z,62326.51
2019-03-27T01:45:20.949Z,62322.87
2019-03-27T01:47:47.178Z,62323.61
2019-03-27T01:50:13.418Z,62321.64
2019-03-27T01:52:39.670Z,62319.81
2019-03-27T01:55:06.015Z,62323.61
2019-03-27T01:57:32.252Z,62325.02
2019-03-27T01:59:58.494Z,62324.28
2019-03-27T02:02:24.732Z,62326.11
2019-03-27T02:04:50.955Z,62327.40
2019-03-27T02:07:17.243Z,62331.39
2019-03-27T02:09:43.488Z,62335.93
2019-03-27T02:12:09.733Z,62339.46
2019-03-27T02:14:35.968Z,62345.61
2019-03-27T02:17:02.229Z,62343.93
2019-03-27T02:22:18.838Z,62346.64
2019-03-27T02:24:45.063Z,62350.82
2019-03-27T02:27:11.315Z,62358.83
2019-03-27T02:29:37.598Z,62360.79
2019-03-27T02:32:03.843Z,62363.50
2019-03-27T02:34:30.082Z,62333.36
2019-03-27T02:36:56.349Z,62365.81
2019-03-27T02:39:22.577Z,62365.07
2019-03-27T02:41:48.825Z,62374.41
2019-03-27T02:44:15.070Z,62375.98
2019-03-27T02:46:41.301Z,62378.68
2019-03-27T02:49:07.555Z,62379.01
2019-03-27T02:51:33.792Z,62380.99
2019-03-27T02:54:00.046Z,62384.44
2019-03-27T02:56:26.264Z,62389.18
2019-03-27T02:58:52.510Z,62387.69
2019-03-27T03:01:18.752Z,62387.69
2019-03-27T03:03:44.989Z,62392.23
2019-03-27T03:06:11.229Z,62398.25
2019-03-27T03:08:37.474Z,62398.95
2019-03-27T03:11:03.918Z,62400.02
2019-03-27T03:13:30.160Z,62397.25
2019-03-27T03:15:56.417Z,62398.95
2019-03-27T03:18:22.664Z,62396.90
2019-03-27T03:20:48.910Z,62400.70
2019-03-27T03:23:15.168Z,62403.62
2019-03-27T03:25:41.403Z,62407.61
2019-03-27T03:28:07.658Z,62407.22
2019-03-27T03:30:33.900Z,62410.32
2019-03-27T03:33:00.146Z,62410.47
2019-03-27T03:35:26.387Z,62416.50
2019-03-27T03:37:52.620Z,62397.38
2019-03-27T03:40:18.875Z,62417.59
2019-03-27T03:42:45.113Z,62416.08
2019-03-27T03:48:07.938Z,62421.91
2019-03-27T03:51:15.463Z,62416.02
2019-03-27T03:53:54.428Z,62420.97
2019-03-27T04:08:19.860Z,62425.51
2019-03-27T04:10:46.119Z,62435.62
2019-03-27T04:13:12.350Z,62428.77
2019-03-27T04:15:38.709Z,62428.02
2019-03-27T04:18:04.952Z,62427.48
2019-03-27T04:20:31.200Z,62427.28
2019-03-27T04:22:57.459Z,62429.11
2019-03-27T04:25:23.740Z,62432.56
2019-03-27T04:27:49.967Z,62432.17
2019-03-27T04:30:16.188Z,62433.46
2019-03-27T04:32:42.441Z,62436.16
2019-03-27T04:35:08.679Z,62434.33
2019-03-27T04:37:34.930Z,62437.04
2019-03-27T04:40:01.491Z,62441.65
2019-03-27T04:42:27.767Z,62445.12
2019-03-27T04:44:53.973Z,62440.84
2019-03-27T04:47:31.545Z,62445.79
2019-03-27T04:49:48.353Z,62444.09
2019-03-27T04:52:14.585Z,62446.67
2019-03-27T04:54:40.855Z,62448.30
2019-03-27T04:57:07.112Z,62446.80
2019-03-27T04:59:33.381Z,62450.81
2019-03-27T05:01:59.611Z,62451.49
2019-03-27T05:07:03.271Z,62459.70
2019-03-27T05:09:29.520Z,62459.29
2019-03-27T05:11:55.743Z,62461.86
2019-03-27T05:14:21.989Z,62464.57
2019-03-27T05:16:48.331Z,62465.79
2019-03-27T05:19:14.620Z,62471.08
2019-03-27T05:21:40.853Z,62477.80
2019-03-27T05:24:07.132Z,62482.15
2019-03-27T05:26:33.370Z,62479.90
2019-03-27T05:29:19.365Z,62488.66
2019-03-27T05:34:39.694Z,62495.84
2019-03-27T05:37:05.965Z,62503.71
2019-03-27T05:39:32.229Z,62498.36
2019-03-27T05:41:58.476Z,62507.12
2019-03-27T05:44:24.733Z,62510.16
2019-03-27T05:46:50.981Z,62511.60
2019-03-27T05:49:17.207Z,62517.76
2019-03-27T05:51:43.459Z,62519.18
2019-03-27T05:54:09.697Z,62526.59
2019-03-27T05:56:35.940Z,62520.27
2019-03-27T05:59:02.175Z,62528.62
2019-03-27T06:01:28.519Z,62530.04
2019-03-27T06:03:54.890Z,62540.44
2019-03-27T06:06:21.150Z,62548.25
2019-03-27T06:08:47.376Z,62553.47
2019-03-27T06:11:13.628Z,62555.56
2019-03-27T06:13:39.904Z,62556.66
2019-03-27T06:16:06.207Z,62560.26
2019-03-27T06:18:32.481Z,62566.55
2019-03-27T06:20:58.713Z,62574.45
2019-03-27T06:23:24.953Z,62576.55
2019-03-27T06:25:51.208Z,62586.06
2019-03-27T06:28:17.464Z,62592.38
2019-03-27T06:30:43.697Z,62604.54
2019-03-27T06:33:09.938Z,62616.09
2019-03-27T06:35:36.189Z,62619.12
2019-03-27T06:38:02.439Z,62629.86
2019-03-27T06:40:28.669Z,62632.38
2019-03-27T06:42:54.916Z,62650.19
2019-03-27T06:45:21.153Z,62657.93
2019-03-27T06:47:47.413Z,62660.64
2019-03-27T06:53:21.109Z,62666.22
2019-03-27T06:55:47.346Z,62675.53
2019-03-27T06:58:13.600Z,62689.59
2019-03-27T07:00:39.832Z,62692.53
2019-03-27T07:03:47.690Z,62679.68
2019-03-27T07:06:13.931Z,62676.42
2019-03-27T07:08:40.184Z,62685.80
2019-03-27T07:11:06.421Z,62680.92
2019-03-27T07:13:32.678Z,62688.79
2019-03-27T07:15:58.935Z,62717.07
2019-03-27T07:18:25.204Z,62726.79
2019-03-27T07:20:51.510Z,62750.74
2019-03-27T07:23:17.821Z,62752.57
2019-03-27T07:25:44.059Z,62760.06
2019-03-27T07:28:10.309Z,62752.04
2019-03-27T07:30:36.562Z,62757.47
2019-03-27T07:33:02.920Z,62773.79
2019-03-27T07:35:29.156Z,62776.53
2019-03-27T07:37:55.422Z,62781.96
2019-03-27T07:40:21.656Z,62798.16
2019-03-27T07:42:47.898Z,62799.18
2019-03-27T07:45:14.148Z,62787.61
2019-03-27T07:47:40.415Z,62784.00
2019-03-27T07:50:06.872Z,62771.42
2019-03-27T07:52:33.122Z,62799.45
2019-03-27T07:54:59.447Z,62783.60
2019-03-27T07:57:25.723Z,62778.37
2019-03-27T07:59:51.973Z,62772.29
2019-03-27T08:02:18.206Z,62782.93
2019-03-27T08:04:44.451Z,62776.38
2019-03-27T08:07:10.687Z,62788.16
2019-03-27T08:09:36.934Z,62894.04
2019-03-27T08:12:03.358Z,62985.83
2019-03-27T08:14:29.747Z,63044.89
2019-03-27T08:16:55.989Z,63050.89
2019-03-27T08:19:22.254Z,63105.49
2019-03-27T08:21:48.499Z,63134.54
2019-03-27T08:24:14.759Z,63194.98
2019-03-27T08:26:41.022Z,63188.90
2019-03-27T08:29:07.247Z,63204.94
2019-03-27T08:31:33.499Z,63191.83
2019-03-27T08:33:59.739Z,63217.95
2019-03-27T08:36:25.984Z,63216.34
2019-03-27T08:38:52.231Z,63276.68
2019-03-27T08:41:18.487Z,63293.20
2019-03-27T08:43:44.738Z,63236.67
2019-03-27T08:46:10.961Z,63343.43
2019-03-27T08:48:39.208Z,63380.43
2019-03-27T08:51:05.353Z,63392.94
2019-03-27T08:53:31.587Z,63393.38
2019-03-27T08:55:57.844Z,63427.68
2019-03-27T08:58:24.090Z,63455.41
2019-03-27T09:03:50.148Z,63428.45
2019-03-27T09:06:16.407Z,63416.39
2019-03-27T09:08:42.648Z,63363.59
2019-03-27T09:11:08.906Z,63402.91
2019-03-27T09:13:35.149Z,63429.33
2019-03-27T09:16:42.972Z,63478.40
2019-03-27T09:19:09.240Z,63500.77
2019-03-27T09:21:35.493Z,63519.09
2019-03-27T09:24:01.733Z,63520.26
2019-03-27T09:26:27.981Z,63533.43
2019-03-27T09:28:54.221Z,63526.42
2019-03-27T09:31:20.485Z,63551.44
2019-03-27T09:33:46.727Z,63598.09
2019-03-27T09:36:12.991Z,63573.38
2019-03-27T09:38:39.218Z,63564.39
2019-03-27T09:41:05.474Z,63613.87
2019-03-27T09:43:31.751Z,63626.62
2019-03-27T09:45:57.982Z,63616.20
2019-03-27T09:48:24.243Z,63628.81
2019-03-27T09:50:50.480Z,63640.34
2019-03-27T09:53:16.741Z,63613.55
2019-03-27T09:55:42.988Z,63612.01
2019-03-27T09:58:09.243Z,63650.44
2019-03-27T10:00:55.339Z,63657.79
2019-03-27T10:03:21.577Z,63653.73
2019-03-27T10:05:47.806Z,63659.21
2019-03-27T10:08:14.057Z,63679.31
2019-03-27T10:11:00.036Z,63680.97
2019-03-27T10:13:26.291Z,63669.78
2019-03-27T10:15:52.528Z,63634.40
2019-03-27T10:18:18.983Z,63625.20
2019-03-27T10:20:45.217Z,63614.77
2019-03-27T10:23:11.452Z,63605.11
2019-03-27T10:25:37.681Z,63623.79
2019-03-27T10:28:03.931Z,63687.00
2019-03-27T10:30:30.169Z,63729.29
2019-03-27T10:32:56.439Z,63721.82
2019-03-27T10:35:22.682Z,63752.03
2019-03-27T10:37:48.930Z,63734.79
2019-03-27T10:40:15.165Z,63687.55
2019-03-27T10:42:41.419Z,63677.45
2019-03-27T10:45:48.980Z,63707.87
2019-03-27T10:48:15.230Z,63683.50
2019-03-27T10:50:41.457Z,63687.12
2019-03-27T10:53:07.702Z,63680.07
2019-03-27T10:55:34.617Z,63671.30
2019-03-27T10:58:02.098Z,63677.45
2019-03-27T11:00:28.345Z,63667.78
2019-03-27T11:02:54.586Z,63649.13
2019-03-27T11:05:20.841Z,63662.96
2019-03-27T11:07:47.069Z,63661.75
2019-03-27T11:10:13.530Z,63666.46
2019-03-27T11:12:39.760Z,63706.79
2019-03-27T11:15:47.302Z,63668.67
2019-03-27T11:18:13.530Z,63626.28
2019-03-27T11:20:39.771Z,63663.40
2019-03-27T11:23:06.000Z,63648.02
2019-03-27T11:25:33.343Z,63644.27
2019-03-27T11:28:00.386Z,63642.96
2019-03-27T11:31:07.937Z,63633.66
2019-03-27T11:33:34.199Z,63614.77
2019-03-27T11:36:00.437Z,63566.48
2019-03-27T11:41:40.342Z,63588.33
2019-03-27T11:44:06.575Z,63566.55
2019-03-27T11:46:32.826Z,63549.03
2019-03-27T11:48:59.054Z,63560.55
2019-03-27T11:51:25.296Z,63574.14
2019-03-27T11:53:51.524Z,63557.03
2019-03-27T11:56:17.773Z,63533.89
2019-03-27T11:58:44.029Z,63533.67
2019-03-27T12:01:10.268Z,63533.76
2019-03-27T12:03:36.498Z,63517.55
2019-03-27T12:06:02.849Z,63533.09
2019-03-27T12:08:29.103Z,63578.65
2019-03-27T12:10:55.379Z,63602.14
2019-03-27T12:13:21.615Z,63607.75
2019-03-27T12:15:47.864Z,63609.06
2019-03-27T12:21:21.559Z,63600.82
2019-03-27T12:23:47.795Z,63589.53
2019-03-27T12:26:14.036Z,63585.46
2019-03-27T12:28:40.272Z,63589.85
2019-03-27T12:31:06.551Z,63612.36
2019-03-27T12:33:32.760Z,63581.60
2019-03-27T12:35:58.995Z,63560.43
2019-03-27T12:38:25.248Z,63531.48
2019-03-27T12:40:51.484Z,63543.88
2019-03-27T12:43:17.737Z,63554.73
2019-03-27T12:45:43.987Z,63571.82
2019-03-27T12:48:10.231Z,63571.61
2019-03-27T12:50:36.571Z,63574.90
2019-03-27T12:55:59.975Z,63548.15
2019-03-27T12:58:26.584Z,63552.52
2019-03-27T13:00:52.854Z,63550.80
2019-03-27T13:03:19.110Z,63550.77
2019-03-27T13:05:45.358Z,63502.86
2019-03-27T13:08:11.621Z,63475.55
2019-03-27T13:10:37.875Z,63467.00
2019-03-27T13:13:04.137Z,63438.72
2019-03-27T13:15:30.729Z,63434.36
2019-03-27T13:17:56.974Z,63420.44
2019-03-27T13:20:23.218Z,63412.21
2019-03-27T13:22:49.472Z,63408.93
2019-03-27T13:25:16.180Z,63415.52
2019-03-27T13:27:42.418Z,63411.89
2019-03-27T13:32:58.763Z,63417.15
2019-03-27T13:35:25.006Z,63415.75
2019-03-27T13:37:51.263Z,63410.38
2019-03-27T13:40:58.793Z,63406.08
2019-03-27T13:43:25.042Z,63382.50
2019-03-27T13:45:51.272Z,63359.43
2019-03-27T13:48:17.538Z,63336.86
2019-03-27T13:50:43.772Z,63316.07
2019-03-27T13:53:10.023Z,63300.54
2019-03-27T13:55:36.252Z,63300.74
2019-03-27T13:58:02.471Z,63296.71
2019-03-27T14:00:28.717Z,63285.88
2019-03-27T14:02:54.945Z,63287.82
2019-03-27T14:05:21.187Z,63277.55
2019-03-27T14:07:47.425Z,63288.90
2019-03-27T14:10:14.010Z,63291.98
2019-03-27T14:12:40.241Z,63280.71
2019-03-27T14:15:26.249Z,63265.30
2019-03-27T14:17:52.495Z,63252.19
2019-03-27T14:23:12.839Z,63203.19
2019-03-27T14:25:39.100Z,63207.89
2019-03-27T14:28:05.333Z,63204.27
2019-03-27T14:31:11.081Z,63195.74
2019-03-27T14:33:37.338Z,63189.06
2019-03-27T14:36:03.585Z,63178.58
2019-03-27T14:38:29.834Z,63165.27
2019-03-27T14:40:56.094Z,63156.31
2019-03-27T14:43:22.339Z,63148.11
2019-03-27T14:46:29.953Z,63153.99
2019-03-27T14:48:56.214Z,63148.74
2019-03-27T14:51:22.464Z,63135.43
2019-03-27T14:53:48.711Z,63128.31
2019-03-27T14:56:14.955Z,63121.01
2019-03-27T14:58:41.197Z,63118.46
2019-03-27T15:01:07.445Z,63108.44
2019-03-27T15:03:33.681Z,63106.38
2019-03-27T15:06:19.703Z,63092.80
2019-03-27T15:08:45.963Z,63084.07
2019-03-27T15:11:12.210Z,63059.63
2019-03-27T15:13:38.448Z,63075.13
2019-03-27T15:16:04.805Z,63061.05
2019-03-27T15:18:31.041Z,63059.71
2019-03-27T15:20:57.293Z,63045.87
2019-03-27T15:23:23.523Z,63051.11
2019-03-27T15:25:49.767Z,63042.17
2019-03-27T15:28:16.002Z,63053.29
2019-03-27T15:30:42.245Z,63041.50
2019-03-27T15:33:08.489Z,63021.84
2019-03-27T15:35:34.714Z,63016.17
2019-03-27T15:38:00.965Z,63010.84
2019-03-27T15:41:08.503Z,63005.13
2019-03-27T15:43:54.513Z,62989.25
2019-03-27T15:46:20.764Z,62994.89
2019-03-27T15:48:47.000Z,62985.43
2019-03-27T15:51:13.259Z,62975.19
2019-03-27T15:53:39.555Z,62964.68
2019-03-27T15:56:05.838Z,62969.27
2019-03-27T15:58:32.200Z,62966.21
2019-03-27T16:00:58.424Z,62950.93
2019-03-27T16:03:24.679Z,62927.62
2019-03-27T16:05:50.915Z,62924.21
2019-03-27T16:08:17.179Z,62914.32
2019-03-27T16:10:43.414Z,62914.40
2019-03-27T16:13:09.673Z,62916.05
2019-03-27T16:15:37.210Z,62909.51
2019-03-27T16:20:38.715Z,62891.65
2019-03-27T16:23:04.967Z,62896.21
2019-03-27T16:25:31.206Z,62888.78
2019-03-27T16:27:57.479Z,62884.44
2019-03-27T16:30:23.710Z,62876.06
2019-03-27T16:32:49.954Z,62880.48
2019-03-27T16:35:16.204Z,62867.46
2019-03-27T16:37:42.456Z,62852.75
2019-03-27T16:43:29.227Z,62827.37
2019-03-27T16:45:55.467Z,62809.94
2019-03-27T16:48:21.712Z,62803.61
2019-03-27T16:50:47.955Z,62790.88
2019-03-27T16:53:14.216Z,62784.22
2019-03-27T16:55:40.454Z,62776.05
2019-03-27T16:58:06.707Z,62774.68
2019-03-27T17:00:32.927Z,62767.68
2019-03-27T17:02:59.179Z,62754.83
2019-03-27T17:05:25.434Z,62741.90
2019-03-27T17:07:51.681Z,62734.68
2019-03-27T17:10:17.942Z,62718.64
2019-03-27T17:12:44.170Z,62713.61
2019-03-27T17:15:51.726Z,62698.63
2019-03-27T17:18:17.983Z,62691.98
2019-03-27T17:20:44.241Z,62682.20
2019-03-27T17:23:18.003Z,62678.46
2019-03-27T17:25:38.647Z,62664.25
2019-03-27T17:28:04.892Z,62655.55
2019-03-27T17:30:32.065Z,62652.90
2019-03-27T17:32:59.302Z,62640.66
2019-03-27T17:35:25.550Z,62629.67
2019-03-27T17:37:51.790Z,62617.37
2019-03-27T17:40:18.033Z,62612.13
2019-03-27T17:42:44.275Z,62607.80
2019-03-27T17:45:32.358Z,62599.03
2019-03-27T17:47:58.592Z,62593.73
2019-03-27T17:50:24.822Z,62586.32
2019-03-27T17:52:51.080Z,62576.74
2019-03-27T17:55:17.343Z,62566.55
2019-03-27T17:57:43.603Z,62559.17
2019-03-27T18:00:51.146Z,62552.37
2019-03-27T18:03:17.416Z,62544.99
2019-03-27T18:05:43.716Z,62535.00
2019-03-27T18:08:10.010Z,62526.11
2019-03-27T18:10:36.277Z,62520.69
2019-03-27T18:13:02.520Z,62509.41
2019-03-27T18:15:28.793Z,62512.61
2019-03-27T18:17:55.024Z,62513.09
2019-03-27T18:20:21.284Z,62527.75
2019-03-27T18:22:47.507Z,62540.77
2019-03-27T18:25:13.875Z,62544.77
2019-03-27T18:27:40.122Z,62537.32
2019-03-27T18:33:02.696Z,62520.89
2019-03-27T18:35:50.577Z,62505.28
2019-03-27T18:38:17.240Z,62495.71
2019-03-27T18:40:43.491Z,62488.11
2019-03-27T18:43:09.752Z,62478.68
2019-03-27T18:45:36.003Z,62470.95
2019-03-27T18:48:02.250Z,62474.88
2019-03-27T18:50:28.501Z,62481.19
2019-03-27T18:52:54.747Z,62481.54
2019-03-27T18:55:26.629Z,62481.39
2019-03-27T18:57:59.335Z,62471.43
2019-03-27T19:06:17.242Z,62443.54
2019-03-27T19:08:43.585Z,62440.57
2019-03-27T19:11:09.872Z,62427.28
2019-03-27T19:13:36.504Z,62423.00
2019-03-27T19:16:02.737Z,62414.12
2019-03-27T19:18:28.979Z,62402.34
2019-03-27T19:20:55.286Z,62386.82
2019-03-27T19:23:21.527Z,62370.89
2019-03-27T19:25:47.777Z,62374.54
2019-03-27T19:28:33.782Z,62374.41
2019-03-27T19:31:00.028Z,62366.96
2019-03-27T19:33:26.270Z,62359.70
2019-03-27T19:35:52.563Z,62356.45
2019-03-27T19:38:18.889Z,62355.23
2019-03-27T19:40:45.116Z,62344.54
2019-03-27T19:43:11.401Z,62338.91
2019-03-27T19:45:37.643Z,62338.30
2019-03-27T19:48:03.975Z,62329.97
2019-03-27T19:50:30.522Z,62323.06
2019-03-27T19:52:56.820Z,62312.71
2019-03-27T19:55:23.120Z,62304.09
2019-03-27T19:57:49.448Z,62290.55
2019-03-27T20:00:56.935Z,62276.06
2019-03-27T20:03:23.198Z,62269.02
2019-03-27T20:05:49.429Z,62264.36
2019-03-27T20:08:15.704Z,62261.31
2019-03-27T20:10:41.965Z,62257.12
2019-03-27T20:13:08.210Z,62258.06
2019-03-27T20:15:34.437Z,62252.25
2019-03-27T20:20:48.314Z,62250.35
2019-03-27T20:23:15.637Z,62236.41
2019-03-27T20:25:42.778Z,62230.46
2019-03-27T20:28:09.019Z,62239.51
2019-03-27T20:31:16.578Z,62221.73
2019-03-27T20:33:42.855Z,62216.52
2019-03-27T20:36:09.061Z,62198.79
2019-03-27T20:38:35.285Z,62193.87
2019-03-27T20:41:01.929Z,62189.66
2019-03-27T20:43:28.138Z,62188.25
2019-03-27T20:45:54.374Z,62185.75
2019-03-27T20:48:20.607Z,62182.09
2019-03-27T20:53:32.673Z,62181.35
2019-03-27T20:55:58.905Z,62176.41
2019-03-27T20:58:25.137Z,62176.47
2019-03-27T21:00:51.378Z,62174.73
2019-03-27T21:03:17.683Z,62169.11
2019-03-27T21:05:44.095Z,62167.15
2019-03-27T21:08:10.371Z,62161.00
2019-03-27T21:10:36.701Z,62142.41
2019-03-27T21:13:24.492Z,62136.18
2019-03-27T21:16:02.778Z,62133.01
2019-03-27T21:18:28.988Z,62147.46
2019-03-27T21:21:15.101Z,62136.79
2019-03-27T21:23:41.563Z,62140.10
2019-03-27T21:26:09.671Z,62137.21
2019-03-27T21:28:35.948Z,62136.86
2019-03-27T21:31:21.961Z,62131.40
2019-03-27T21:33:48.189Z,62130.72
2019-03-27T21:36:14.810Z,62131.11
2019-03-27T21:38:41.039Z,62126.93
2019-03-27T21:41:07.287Z,62122.95
2019-03-27T21:43:33.747Z,62122.06
2019-03-27T21:45:59.997Z,62114.29
2019-03-27T21:48:28.268Z,62112.20
2019-03-27T21:51:35.831Z,62103.13
2019-03-27T21:54:02.067Z,62101.17
2019-03-27T21:56:28.311Z,62098.47
2019-03-27T21:58:54.575Z,62098.28
2019-03-27T22:01:20.824Z,62102.45
2019-03-27T22:03:47.053Z,62105.91
2019-03-27T22:06:13.723Z,62102.26
2019-03-27T22:08:53.046Z,62098.54
2019-03-27T22:11:19.298Z,62086.19
2019-03-27T22:16:58.701Z,62080.31
2019-03-27T22:19:24.931Z,62072.14
2019-03-27T22:21:51.174Z,62073.29
2019-03-27T22:24:17.602Z,62064.37
2019-03-27T22:26:43.841Z,62058.42
2019-03-27T22:29:10.074Z,62059.16
2019-03-27T22:31:36.316Z,62058.63
2019-03-27T22:34:02.564Z,62055.39
2019-03-27T22:36:28.803Z,62053.57
2019-03-27T22:38:55.107Z,62053.22
2019-03-27T22:41:21.331Z,62054.17
2019-03-27T22:43:47.601Z,62049.79
2019-03-27T22:46:13.837Z,62051.80
2019-03-27T22:48:40.067Z,62047.83
2019-03-27T22:51:06.302Z,62048.37
2019-03-27T22:53:32.546Z,62050.17
2019-03-27T22:55:58.797Z,62048.89
2019-03-27T22:58:25.031Z,62052.13
2019-03-27T23:01:32.563Z,62047.09
2019-03-27T23:03:58.815Z,62050.58
2019-03-27T23:06:25.050Z,62042.90
2019-03-27T23:08:51.314Z,62048.56
2019-03-27T23:11:17.547Z,62055.04
2019-03-27T23:13:43.807Z,62055.24
2019-03-27T23:16:10.035Z,62056.87
2019-03-27T23:18:36.275Z,62056.13
2019-03-27T23:21:02.695Z,62058.02
2019-03-27T23:23:28.936Z,62057.61
2019-03-27T23:26:03.039Z,62053.35
2019-03-27T23:28:23.314Z,62051.75
2019-03-27T23:30:49.544Z,62064.20
2019-03-27T23:33:15.771Z,62050.85
2019-03-27T23:35:42.035Z,62059.56
2019-03-27T23:38:08.296Z,62058.42
2019-03-27T23:40:34.525Z,62067.00
2019-03-27T23:43:00.767Z,62065.98
2019-03-27T23:45:27.006Z,62081.05
2019-03-27T23:47:53.239Z,62076.11
2019-03-27T23:50:19.483Z,62075.71
2019-03-27T23:52:45.703Z,62077.88
2019-03-27T23:55:11.941Z,62084.83
2019-03-27T23:57:38.184Z,62076.99
